sensor_id;sensor_type;location;lat;lon;timestamp;temperature;humidity
56478;DHT22;42382;53.210;5.772;2023-07-22T00:00:01;14.30;83.40
56478;DHT22;42382;53.210;5.772;2023-07-22T00:02:27;14.30;83.50
56478;DHT22;42382;53.210;5.772;2023-07-22T00:04:53;14.30;83.60
56478;DHT22;42382;53.210;5.772;2023-07-22T00:07:18;14.30;83.60
56478;DHT22;42382;53.210;5.772;2023-07-22T00:09:44;14.30;83.80
56478;DHT22;42382;53.210;5.772;2023-07-22T00:12:10;14.30;83.80
56478;DHT22;42382;53.210;5.772;2023-07-22T00:14:39;14.20;83.80
56478;DHT22;42382;53.210;5.772;2023-07-22T00:17:05;14.20;83.90
56478;DHT22;42382;53.210;5.772;2023-07-22T00:19:31;14.20;84.00
56478;DHT22;42382;53.210;5.772;2023-07-22T00:21:56;14.20;83.90
56478;DHT22;42382;53.210;5.772;2023-07-22T00:24:22;14.30;83.90
56478;DHT22;42382;53.210;5.772;2023-07-22T00:26:51;14.30;84.00
56478;DHT22;42382;53.210;5.772;2023-07-22T00:29:16;14.30;84.00
56478;DHT22;42382;53.210;5.772;2023-07-22T00:31:43;14.30;84.00
56478;DHT22;42382;53.210;5.772;2023-07-22T00:34:08;14.30;83.90
56478;DHT22;42382;53.210;5.772;2023-07-22T00:36:34;14.30;83.90
56478;DHT22;42382;53.210;5.772;2023-07-22T00:39:00;14.30;83.80
56478;DHT22;42382;53.210;5.772;2023-07-22T00:41:27;14.30;83.80
56478;DHT22;42382;53.210;5.772;2023-07-22T00:43:52;14.30;83.90
56478;DHT22;42382;53.210;5.772;2023-07-22T00:46:18;14.30;84.00
56478;DHT22;42382;53.210;5.772;2023-07-22T00:48:44;14.30;84.00
56478;DHT22;42382;53.210;5.772;2023-07-22T00:51:09;14.30;84.00
56478;DHT22;42382;53.210;5.772;2023-07-22T00:53:35;14.30;84.00
56478;DHT22;42382;53.210;5.772;2023-07-22T00:56:01;14.20;84.20
56478;DHT22;42382;53.210;5.772;2023-07-22T00:58:26;14.20;84.10
56478;DHT22;42382;53.210;5.772;2023-07-22T01:00:52;14.20;84.10
56478;DHT22;42382;53.210;5.772;2023-07-22T01:03:18;14.20;84.20
56478;DHT22;42382;53.210;5.772;2023-07-22T01:05:46;14.20;84.20
56478;DHT22;42382;53.210;5.772;2023-07-22T01:08:13;14.10;84.30
56478;DHT22;42382;53.210;5.772;2023-07-22T01:10:39;14.10;84.20
56478;DHT22;42382;53.210;5.772;2023-07-22T01:13:05;14.10;84.20
56478;DHT22;42382;53.210;5.772;2023-07-22T01:15:31;14.00;84.20
56478;DHT22;42382;53.210;5.772;2023-07-22T01:17:57;14.00;84.20
56478;DHT22;42382;53.210;5.772;2023-07-22T01:20:28;13.90;84.20
56478;DHT22;42382;53.210;5.772;2023-07-22T01:22:54;13.90;84.20
56478;DHT22;42382;53.210;5.772;2023-07-22T01:25:21;13.90;84.20
56478;DHT22;42382;53.210;5.772;2023-07-22T01:27:50;13.90;84.20
56478;DHT22;42382;53.210;5.772;2023-07-22T01:30:16;13.80;84.30
56478;DHT22;42382;53.210;5.772;2023-07-22T01:32:42;13.80;84.20
56478;DHT22;42382;53.210;5.772;2023-07-22T01:35:08;13.80;84.30
56478;DHT22;42382;53.210;5.772;2023-07-22T01:37:35;13.70;84.20
56478;DHT22;42382;53.210;5.772;2023-07-22T01:40:01;13.60;84.20
56478;DHT22;42382;53.210;5.772;2023-07-22T01:42:40;13.60;84.30
56478;DHT22;42382;53.210;5.772;2023-07-22T01:45:07;13.60;84.40
56478;DHT22;42382;53.210;5.772;2023-07-22T01:47:37;13.50;84.40
56478;DHT22;42382;53.210;5.772;2023-07-22T01:50:04;13.50;84.50
56478;DHT22;42382;53.210;5.772;2023-07-22T01:52:31;13.40;84.50
56478;DHT22;42382;53.210;5.772;2023-07-22T01:54:57;13.40;84.50
56478;DHT22;42382;53.210;5.772;2023-07-22T01:57:23;13.40;84.60
56478;DHT22;42382;53.210;5.772;2023-07-22T01:59:49;13.40;84.60
56478;DHT22;42382;53.210;5.772;2023-07-22T02:02:14;13.40;84.70
56478;DHT22;42382;53.210;5.772;2023-07-22T02:04:40;13.40;84.80
56478;DHT22;42382;53.210;5.772;2023-07-22T02:07:05;13.40;84.80
56478;DHT22;42382;53.210;5.772;2023-07-22T02:09:32;13.30;84.90
56478;DHT22;42382;53.210;5.772;2023-07-22T02:11:58;13.40;85.00
56478;DHT22;42382;53.210;5.772;2023-07-22T02:14:24;13.40;85.00
56478;DHT22;42382;53.210;5.772;2023-07-22T02:16:50;13.30;85.00
56478;DHT22;42382;53.210;5.772;2023-07-22T02:19:15;13.30;85.00
56478;DHT22;42382;53.210;5.772;2023-07-22T02:21:41;13.30;85.00
56478;DHT22;42382;53.210;5.772;2023-07-22T02:24:08;13.20;85.00
56478;DHT22;42382;53.210;5.772;2023-07-22T02:26:34;13.20;85.10
56478;DHT22;42382;53.210;5.772;2023-07-22T02:28:59;13.20;85.00
56478;DHT22;42382;53.210;5.772;2023-07-22T02:31:25;13.20;85.00
56478;DHT22;42382;53.210;5.772;2023-07-22T02:33:51;13.10;85.00
56478;DHT22;42382;53.210;5.772;2023-07-22T02:36:16;13.10;85.00
56478;DHT22;42382;53.210;5.772;2023-07-22T02:38:42;13.10;85.00
56478;DHT22;42382;53.210;5.772;2023-07-22T02:41:07;13.10;85.00
56478;DHT22;42382;53.210;5.772;2023-07-22T02:43:34;13.00;85.00
56478;DHT22;42382;53.210;5.772;2023-07-22T02:46:04;13.00;85.00
56478;DHT22;42382;53.210;5.772;2023-07-22T02:48:32;13.00;85.10
56478;DHT22;42382;53.210;5.772;2023-07-22T02:51:07;12.90;85.10
56478;DHT22;42382;53.210;5.772;2023-07-22T02:53:33;12.90;85.20
56478;DHT22;42382;53.210;5.772;2023-07-22T02:56:00;12.90;85.10
56478;DHT22;42382;53.210;5.772;2023-07-22T02:58:27;13.00;85.30
56478;DHT22;42382;53.210;5.772;2023-07-22T03:00:52;12.90;85.30
56478;DHT22;42382;53.210;5.772;2023-07-22T03:03:18;12.90;85.50
56478;DHT22;42382;53.210;5.772;2023-07-22T03:05:45;12.90;85.50
56478;DHT22;42382;53.210;5.772;2023-07-22T03:08:10;13.00;85.70
56478;DHT22;42382;53.210;5.772;2023-07-22T03:10:36;13.10;85.70
56478;DHT22;42382;53.210;5.772;2023-07-22T03:13:02;13.00;85.70
56478;DHT22;42382;53.210;5.772;2023-07-22T03:15:29;13.10;85.70
56478;DHT22;42382;53.210;5.772;2023-07-22T03:17:55;13.10;85.80
56478;DHT22;42382;53.210;5.772;2023-07-22T03:20:25;13.10;85.80
56478;DHT22;42382;53.210;5.772;2023-07-22T03:22:50;13.10;85.90
56478;DHT22;42382;53.210;5.772;2023-07-22T03:25:17;13.20;85.90
56478;DHT22;42382;53.210;5.772;2023-07-22T03:27:43;13.20;85.90
56478;DHT22;42382;53.210;5.772;2023-07-22T03:30:13;13.20;85.90
56478;DHT22;42382;53.210;5.772;2023-07-22T03:32:46;13.20;86.00
56478;DHT22;42382;53.210;5.772;2023-07-22T03:35:18;13.20;86.00
56478;DHT22;42382;53.210;5.772;2023-07-22T03:37:44;13.20;85.90
56478;DHT22;42382;53.210;5.772;2023-07-22T03:40:10;13.30;85.90
56478;DHT22;42382;53.210;5.772;2023-07-22T03:42:53;13.30;85.90
56478;DHT22;42382;53.210;5.772;2023-07-22T03:45:19;13.30;86.00
56478;DHT22;42382;53.210;5.772;2023-07-22T03:47:47;13.30;85.90
56478;DHT22;42382;53.210;5.772;2023-07-22T03:50:13;13.30;85.90
56478;DHT22;42382;53.210;5.772;2023-07-22T03:52:39;13.40;85.90
56478;DHT22;42382;53.210;5.772;2023-07-22T03:55:05;13.40;85.90
56478;DHT22;42382;53.210;5.772;2023-07-22T03:57:31;13.40;86.00
56478;DHT22;42382;53.210;5.772;2023-07-22T03:59:57;13.40;86.00
56478;DHT22;42382;53.210;5.772;2023-07-22T04:02:24;13.40;86.00
56478;DHT22;42382;53.210;5.772;2023-07-22T04:04:51;13.40;86.00
56478;DHT22;42382;53.210;5.772;2023-07-22T04:07:17;13.40;85.90
56478;DHT22;42382;53.210;5.772;2023-07-22T04:09:43;13.40;85.90
56478;DHT22;42382;53.210;5.772;2023-07-22T04:12:10;13.40;85.90
56478;DHT22;42382;53.210;5.772;2023-07-22T04:14:36;13.50;85.90
56478;DHT22;42382;53.210;5.772;2023-07-22T04:17:02;13.40;85.70
56478;DHT22;42382;53.210;5.772;2023-07-22T04:19:29;13.50;85.70
56478;DHT22;42382;53.210;5.772;2023-07-22T04:21:55;13.50;85.60
56478;DHT22;42382;53.210;5.772;2023-07-22T04:24:21;13.50;85.60
56478;DHT22;42382;53.210;5.772;2023-07-22T04:26:47;13.50;85.60
56478;DHT22;42382;53.210;5.772;2023-07-22T04:29:12;13.50;85.50
56478;DHT22;42382;53.210;5.772;2023-07-22T04:31:38;13.50;85.50
56478;DHT22;42382;53.210;5.772;2023-07-22T04:34:04;13.50;85.50
56478;DHT22;42382;53.210;5.772;2023-07-22T04:36:31;13.60;85.60
56478;DHT22;42382;53.210;5.772;2023-07-22T04:38:56;13.60;85.70
56478;DHT22;42382;53.210;5.772;2023-07-22T04:41:22;13.60;85.70
56478;DHT22;42382;53.210;5.772;2023-07-22T04:43:49;13.60;85.80
56478;DHT22;42382;53.210;5.772;2023-07-22T04:46:16;13.60;85.90
56478;DHT22;42382;53.210;5.772;2023-07-22T04:48:41;13.70;85.90
56478;DHT22;42382;53.210;5.772;2023-07-22T04:51:07;13.70;86.00
56478;DHT22;42382;53.210;5.772;2023-07-22T04:53:33;13.80;86.00
56478;DHT22;42382;53.210;5.772;2023-07-22T04:55:58;13.90;86.10
56478;DHT22;42382;53.210;5.772;2023-07-22T04:58:24;13.90;86.20
56478;DHT22;42382;53.210;5.772;2023-07-22T05:00:50;13.90;86.20
56478;DHT22;42382;53.210;5.772;2023-07-22T05:03:16;13.90;86.20
56478;DHT22;42382;53.210;5.772;2023-07-22T05:05:43;14.00;86.30
56478;DHT22;42382;53.210;5.772;2023-07-22T05:08:09;14.00;86.30
56478;DHT22;42382;53.210;5.772;2023-07-22T05:10:34;14.10;86.30
56478;DHT22;42382;53.210;5.772;2023-07-22T05:13:00;14.20;86.30
56478;DHT22;42382;53.210;5.772;2023-07-22T05:15:31;14.20;86.30
56478;DHT22;42382;53.210;5.772;2023-07-22T05:17:56;14.20;86.40
56478;DHT22;42382;53.210;5.772;2023-07-22T05:20:22;14.30;86.30
56478;DHT22;42382;53.210;5.772;2023-07-22T05:22:51;14.30;86.30
56478;DHT22;42382;53.210;5.772;2023-07-22T05:25:17;14.40;86.30
56478;DHT22;42382;53.210;5.772;2023-07-22T05:27:45;14.40;86.30
56478;DHT22;42382;53.210;5.772;2023-07-22T05:30:11;14.40;86.40
56478;DHT22;42382;53.210;5.772;2023-07-22T05:32:39;14.40;86.20
56478;DHT22;42382;53.210;5.772;2023-07-22T05:35:05;14.60;86.20
56478;DHT22;42382;53.210;5.772;2023-07-22T05:37:32;14.60;86.20
56478;DHT22;42382;53.210;5.772;2023-07-22T05:39:58;14.60;86.30
56478;DHT22;42382;53.210;5.772;2023-07-22T05:42:24;14.70;86.20
56478;DHT22;42382;53.210;5.772;2023-07-22T05:44:50;14.80;86.20
56478;DHT22;42382;53.210;5.772;2023-07-22T05:47:15;14.90;86.20
56478;DHT22;42382;53.210;5.772;2023-07-22T05:49:41;14.90;86.10
56478;DHT22;42382;53.210;5.772;2023-07-22T05:52:07;15.00;86.10
56478;DHT22;42382;53.210;5.772;2023-07-22T05:54:33;15.20;86.10
56478;DHT22;42382;53.210;5.772;2023-07-22T05:56:58;15.30;86.00
56478;DHT22;42382;53.210;5.772;2023-07-22T05:59:24;15.30;85.80
56478;DHT22;42382;53.210;5.772;2023-07-22T06:01:50;15.40;85.70
56478;DHT22;42382;53.210;5.772;2023-07-22T06:04:16;15.40;85.50
56478;DHT22;42382;53.210;5.772;2023-07-22T06:06:41;15.50;85.30
56478;DHT22;42382;53.210;5.772;2023-07-22T06:09:07;15.50;85.20
56478;DHT22;42382;53.210;5.772;2023-07-22T06:11:32;15.50;84.70
56478;DHT22;42382;53.210;5.772;2023-07-22T06:13:58;15.50;84.60
56478;DHT22;42382;53.210;5.772;2023-07-22T06:16:23;15.50;84.70
56478;DHT22;42382;53.210;5.772;2023-07-22T06:18:49;15.60;84.80
56478;DHT22;42382;53.210;5.772;2023-07-22T06:21:15;15.60;84.70
56478;DHT22;42382;53.210;5.772;2023-07-22T06:23:41;15.70;84.60
56478;DHT22;42382;53.210;5.772;2023-07-22T06:26:07;15.70;84.70
56478;DHT22;42382;53.210;5.772;2023-07-22T06:28:32;15.80;84.80
56478;DHT22;42382;53.210;5.772;2023-07-22T06:30:58;15.80;84.80
56478;DHT22;42382;53.210;5.772;2023-07-22T06:33:24;15.80;84.90
56478;DHT22;42382;53.210;5.772;2023-07-22T06:35:50;15.90;84.90
56478;DHT22;42382;53.210;5.772;2023-07-22T06:38:15;15.90;84.80
56478;DHT22;42382;53.210;5.772;2023-07-22T06:40:41;15.90;84.90
56478;DHT22;42382;53.210;5.772;2023-07-22T06:43:06;16.10;84.90
56478;DHT22;42382;53.210;5.772;2023-07-22T06:45:32;16.10;84.90
56478;DHT22;42382;53.210;5.772;2023-07-22T06:47:58;16.30;84.60
56478;DHT22;42382;53.210;5.772;2023-07-22T06:50:24;16.20;84.50
56478;DHT22;42382;53.210;5.772;2023-07-22T06:52:50;16.20;84.50
56478;DHT22;42382;53.210;5.772;2023-07-22T06:55:16;16.30;84.50
56478;DHT22;42382;53.210;5.772;2023-07-22T06:57:42;16.30;84.40
56478;DHT22;42382;53.210;5.772;2023-07-22T07:00:08;16.40;84.40
56478;DHT22;42382;53.210;5.772;2023-07-22T07:02:35;16.50;84.50
56478;DHT22;42382;53.210;5.772;2023-07-22T07:05:01;16.60;84.60
56478;DHT22;42382;53.210;5.772;2023-07-22T07:07:27;16.80;84.50
56478;DHT22;42382;53.210;5.772;2023-07-22T07:09:53;16.90;84.50
56478;DHT22;42382;53.210;5.772;2023-07-22T07:12:18;16.90;84.50
56478;DHT22;42382;53.210;5.772;2023-07-22T07:14:44;16.90;84.00
56478;DHT22;42382;53.210;5.772;2023-07-22T07:17:09;16.90;84.00
56478;DHT22;42382;53.210;5.772;2023-07-22T07:19:35;16.90;83.90
56478;DHT22;42382;53.210;5.772;2023-07-22T07:22:01;16.90;83.90
56478;DHT22;42382;53.210;5.772;2023-07-22T07:24:26;16.90;83.80
56478;DHT22;42382;53.210;5.772;2023-07-22T07:26:53;16.80;83.70
56478;DHT22;42382;53.210;5.772;2023-07-22T07:29:18;16.80;83.60
56478;DHT22;42382;53.210;5.772;2023-07-22T07:31:44;16.80;83.70
56478;DHT22;42382;53.210;5.772;2023-07-22T07:34:09;16.80;83.80
56478;DHT22;42382;53.210;5.772;2023-07-22T07:36:35;16.90;84.00
56478;DHT22;42382;53.210;5.772;2023-07-22T07:39:01;17.00;84.20
56478;DHT22;42382;53.210;5.772;2023-07-22T07:41:27;17.30;84.60
56478;DHT22;42382;53.210;5.772;2023-07-22T07:43:53;17.90;84.60
56478;DHT22;42382;53.210;5.772;2023-07-22T07:46:24;18.50;84.30
56478;DHT22;42382;53.210;5.772;2023-07-22T07:48:54;19.00;82.90
56478;DHT22;42382;53.210;5.772;2023-07-22T07:51:21;19.50;82.10
56478;DHT22;42382;53.210;5.772;2023-07-22T07:53:48;19.80;80.20
56478;DHT22;42382;53.210;5.772;2023-07-22T07:56:18;19.70;79.40
56478;DHT22;42382;53.210;5.772;2023-07-22T07:58:44;19.60;80.00
56478;DHT22;42382;53.210;5.772;2023-07-22T08:01:11;19.60;80.00
56478;DHT22;42382;53.210;5.772;2023-07-22T08:03:38;19.80;78.70
56478;DHT22;42382;53.210;5.772;2023-07-22T08:06:05;19.80;77.60
56478;DHT22;42382;53.210;5.772;2023-07-22T08:08:32;19.50;76.80
56478;DHT22;42382;53.210;5.772;2023-07-22T08:11:20;19.30;76.50
56478;DHT22;42382;53.210;5.772;2023-07-22T08:13:45;19.10;76.60
56478;DHT22;42382;53.210;5.772;2023-07-22T08:16:13;18.90;76.80
56478;DHT22;42382;53.210;5.772;2023-07-22T08:18:39;18.70;76.70
56478;DHT22;42382;53.210;5.772;2023-07-22T08:21:06;18.50;76.30
56478;DHT22;42382;53.210;5.772;2023-07-22T08:23:32;18.40;76.60
56478;DHT22;42382;53.210;5.772;2023-07-22T08:25:58;18.20;77.00
56478;DHT22;42382;53.210;5.772;2023-07-22T08:28:24;18.10;77.70
56478;DHT22;42382;53.210;5.772;2023-07-22T08:30:49;17.80;78.20
56478;DHT22;42382;53.210;5.772;2023-07-22T08:33:16;17.80;78.90
56478;DHT22;42382;53.210;5.772;2023-07-22T08:35:42;17.70;79.30
56478;DHT22;42382;53.210;5.772;2023-07-22T08:38:08;17.70;80.00
56478;DHT22;42382;53.210;5.772;2023-07-22T08:40:41;17.60;80.00
56478;DHT22;42382;53.210;5.772;2023-07-22T08:43:08;17.50;80.40
56478;DHT22;42382;53.210;5.772;2023-07-22T08:45:35;17.40;80.50
56478;DHT22;42382;53.210;5.772;2023-07-22T08:48:09;17.40;80.90
56478;DHT22;42382;53.210;5.772;2023-07-22T08:53:19;17.40;80.90
56478;DHT22;42382;53.210;5.772;2023-07-22T08:55:45;17.40;80.60
56478;DHT22;42382;53.210;5.772;2023-07-22T08:58:13;17.40;80.70
56478;DHT22;42382;53.210;5.772;2023-07-22T09:00:40;17.50;80.70
56478;DHT22;42382;53.210;5.772;2023-07-22T09:03:06;17.70;80.90
56478;DHT22;42382;53.210;5.772;2023-07-22T09:05:35;17.80;80.90
56478;DHT22;42382;53.210;5.772;2023-07-22T09:08:04;17.80;80.60
56478;DHT22;42382;53.210;5.772;2023-07-22T09:10:30;17.90;80.60
56478;DHT22;42382;53.210;5.772;2023-07-22T09:12:57;17.90;80.40
56478;DHT22;42382;53.210;5.772;2023-07-22T09:15:24;17.90;80.10
56478;DHT22;42382;53.210;5.772;2023-07-22T09:17:50;17.90;80.10
56478;DHT22;42382;53.210;5.772;2023-07-22T09:20:16;17.90;80.00
56478;DHT22;42382;53.210;5.772;2023-07-22T09:22:51;17.90;79.60
56478;DHT22;42382;53.210;5.772;2023-07-22T09:25:22;17.90;79.40
56478;DHT22;42382;53.210;5.772;2023-07-22T09:27:51;17.80;79.60
56478;DHT22;42382;53.210;5.772;2023-07-22T09:30:32;17.70;79.80
56478;DHT22;42382;53.210;5.772;2023-07-22T09:33:02;17.70;79.60
56478;DHT22;42382;53.210;5.772;2023-07-22T09:35:46;17.60;79.80
56478;DHT22;42382;53.210;5.772;2023-07-22T09:38:12;17.50;79.50
56478;DHT22;42382;53.210;5.772;2023-07-22T09:40:40;17.40;79.80
56478;DHT22;42382;53.210;5.772;2023-07-22T09:43:09;17.40;80.10
56478;DHT22;42382;53.210;5.772;2023-07-22T09:45:35;17.50;80.20
56478;DHT22;42382;53.210;5.772;2023-07-22T09:48:03;17.50;80.30
56478;DHT22;42382;53.210;5.772;2023-07-22T09:50:29;17.50;80.20
56478;DHT22;42382;53.210;5.772;2023-07-22T09:52:58;17.60;80.30
56478;DHT22;42382;53.210;5.772;2023-07-22T09:55:27;17.60;80.10
56478;DHT22;42382;53.210;5.772;2023-07-22T09:58:01;17.60;80.30
56478;DHT22;42382;53.210;5.772;2023-07-22T10:00:36;17.70;80.60
56478;DHT22;42382;53.210;5.772;2023-07-22T10:03:03;17.80;80.40
56478;DHT22;42382;53.210;5.772;2023-07-22T10:05:34;17.80;80.60
56478;DHT22;42382;53.210;5.772;2023-07-22T10:08:02;17.90;80.80
56478;DHT22;42382;53.210;5.772;2023-07-22T10:10:35;17.90;80.70
56478;DHT22;42382;53.210;5.772;2023-07-22T10:13:03;17.90;80.80
56478;DHT22;42382;53.210;5.772;2023-07-22T10:15:30;17.90;80.90
56478;DHT22;42382;53.210;5.772;2023-07-22T10:17:56;17.80;80.80
56478;DHT22;42382;53.210;5.772;2023-07-22T10:20:23;17.70;81.00
56478;DHT22;42382;53.210;5.772;2023-07-22T10:22:50;17.80;81.30
56478;DHT22;42382;53.210;5.772;2023-07-22T10:25:17;17.70;81.20
56478;DHT22;42382;53.210;5.772;2023-07-22T10:27:43;17.60;81.30
56478;DHT22;42382;53.210;5.772;2023-07-22T10:30:11;17.50;81.50
56478;DHT22;42382;53.210;5.772;2023-07-22T10:32:39;17.40;81.70
56478;DHT22;42382;53.210;5.772;2023-07-22T10:37:54;17.30;82.30
56478;DHT22;42382;53.210;5.772;2023-07-22T10:45:30;17.20;82.90
56478;DHT22;42382;53.210;5.772;2023-07-22T10:50:44;17.20;83.40
56478;DHT22;42382;53.210;5.772;2023-07-22T10:53:30;17.30;83.80
56478;DHT22;42382;53.210;5.772;2023-07-22T11:06:53;17.30;83.60
56478;DHT22;42382;53.210;5.772;2023-07-22T11:12:05;17.20;83.80
56478;DHT22;42382;53.210;5.772;2023-07-22T11:14:39;17.20;84.10
56478;DHT22;42382;53.210;5.772;2023-07-22T11:17:07;17.20;84.30
56478;DHT22;42382;53.210;5.772;2023-07-22T11:19:51;17.10;84.30
56478;DHT22;42382;53.210;5.772;2023-07-22T11:22:19;17.20;84.60
56478;DHT22;42382;53.210;5.772;2023-07-22T11:24:52;17.30;84.60
56478;DHT22;42382;53.210;5.772;2023-07-22T11:27:17;17.30;84.70
56478;DHT22;42382;53.210;5.772;2023-07-22T11:29:48;17.10;84.40
56478;DHT22;42382;53.210;5.772;2023-07-22T11:32:20;17.10;84.50
56478;DHT22;42382;53.210;5.772;2023-07-22T11:34:48;17.10;85.00
56478;DHT22;42382;53.210;5.772;2023-07-22T11:37:19;17.00;85.10
56478;DHT22;42382;53.210;5.772;2023-07-22T11:39:52;17.00;85.20
56478;DHT22;42382;53.210;5.772;2023-07-22T11:42:18;17.10;85.50
56478;DHT22;42382;53.210;5.772;2023-07-22T11:44:53;17.10;85.50
56478;DHT22;42382;53.210;5.772;2023-07-22T11:47:18;17.30;85.50
56478;DHT22;42382;53.210;5.772;2023-07-22T11:49:47;17.30;85.60
56478;DHT22;42382;53.210;5.772;2023-07-22T11:52:17;17.40;85.70
56478;DHT22;42382;53.210;5.772;2023-07-22T11:54:47;17.60;86.00
56478;DHT22;42382;53.210;5.772;2023-07-22T11:57:21;17.60;85.40
56478;DHT22;42382;53.210;5.772;2023-07-22T11:59:51;17.70;85.50
56478;DHT22;42382;53.210;5.772;2023-07-22T12:02:25;17.80;85.70
56478;DHT22;42382;53.210;5.772;2023-07-22T12:04:59;17.90;85.30
56478;DHT22;42382;53.210;5.772;2023-07-22T12:07:36;18.10;85.60
56478;DHT22;42382;53.210;5.772;2023-07-22T12:10:04;18.40;85.40
56478;DHT22;42382;53.210;5.772;2023-07-22T12:12:34;18.60;84.90
56478;DHT22;42382;53.210;5.772;2023-07-22T12:18:01;19.00;84.10
56478;DHT22;42382;53.210;5.772;2023-07-22T12:20:30;19.10;82.90
56478;DHT22;42382;53.210;5.772;2023-07-22T12:22:57;19.20;81.40
56478;DHT22;42382;53.210;5.772;2023-07-22T12:25:23;19.10;81.90
56478;DHT22;42382;53.210;5.772;2023-07-22T12:27:49;19.10;82.40
56478;DHT22;42382;53.210;5.772;2023-07-22T12:30:18;19.00;82.40
56478;DHT22;42382;53.210;5.772;2023-07-22T12:32:44;18.80;81.70
56478;DHT22;42382;53.210;5.772;2023-07-22T12:35:10;18.50;81.10
56478;DHT22;42382;53.210;5.772;2023-07-22T12:37:36;18.40;81.30
56478;DHT22;42382;53.210;5.772;2023-07-22T12:40:02;18.30;81.50
56478;DHT22;42382;53.210;5.772;2023-07-22T12:42:30;18.30;81.50
56478;DHT22;42382;53.210;5.772;2023-07-22T12:44:56;18.20;81.60
56478;DHT22;42382;53.210;5.772;2023-07-22T12:47:22;18.20;81.70
56478;DHT22;42382;53.210;5.772;2023-07-22T12:49:47;18.20;81.80
56478;DHT22;42382;53.210;5.772;2023-07-22T12:52:13;18.20;81.60
56478;DHT22;42382;53.210;5.772;2023-07-22T12:54:39;18.20;81.60
56478;DHT22;42382;53.210;5.772;2023-07-22T12:57:05;18.10;81.20
56478;DHT22;42382;53.210;5.772;2023-07-22T12:59:31;18.00;81.30
56478;DHT22;42382;53.210;5.772;2023-07-22T13:01:57;17.90;81.50
56478;DHT22;42382;53.210;5.772;2023-07-22T13:04:24;17.80;81.60
56478;DHT22;42382;53.210;5.772;2023-07-22T13:06:52;17.70;81.90
56478;DHT22;42382;53.210;5.772;2023-07-22T13:09:18;17.60;82.70
56478;DHT22;42382;53.210;5.772;2023-07-22T13:11:45;17.60;82.70
56478;DHT22;42382;53.210;5.772;2023-07-22T13:14:11;17.60;83.00
56478;DHT22;42382;53.210;5.772;2023-07-22T13:16:37;17.60;82.80
56478;DHT22;42382;53.210;5.772;2023-07-22T13:19:02;17.60;82.60
56478;DHT22;42382;53.210;5.772;2023-07-22T13:21:29;17.60;82.60
56478;DHT22;42382;53.210;5.772;2023-07-22T13:23:55;17.50;81.30
56478;DHT22;42382;53.210;5.772;2023-07-22T13:26:20;17.50;82.00
56478;DHT22;42382;53.210;5.772;2023-07-22T13:28:46;17.50;81.70
56478;DHT22;42382;53.210;5.772;2023-07-22T13:31:12;17.50;81.80
56478;DHT22;42382;53.210;5.772;2023-07-22T13:33:37;17.40;81.40
56478;DHT22;42382;53.210;5.772;2023-07-22T13:36:03;17.50;81.70
56478;DHT22;42382;53.210;5.772;2023-07-22T13:38:29;17.50;81.70
56478;DHT22;42382;53.210;5.772;2023-07-22T13:40:55;17.70;82.00
56478;DHT22;42382;53.210;5.772;2023-07-22T13:43:21;17.80;81.90
56478;DHT22;42382;53.210;5.772;2023-07-22T13:45:47;17.80;79.90
56478;DHT22;42382;53.210;5.772;2023-07-22T13:48:12;17.80;80.30
56478;DHT22;42382;53.210;5.772;2023-07-22T13:50:38;17.90;80.00
56478;DHT22;42382;53.210;5.772;2023-07-22T13:53:06;17.90;80.30
56478;DHT22;42382;53.210;5.772;2023-07-22T13:55:35;17.90;80.40
56478;DHT22;42382;53.210;5.772;2023-07-22T13:58:00;17.90;80.50
56478;DHT22;42382;53.210;5.772;2023-07-22T14:00:26;17.90;80.20
56478;DHT22;42382;53.210;5.772;2023-07-22T14:02:52;17.90;80.30
56478;DHT22;42382;53.210;5.772;2023-07-22T14:05:17;17.90;80.40
56478;DHT22;42382;53.210;5.772;2023-07-22T14:07:43;17.80;80.40
56478;DHT22;42382;53.210;5.772;2023-07-22T14:10:09;17.90;80.70
56478;DHT22;42382;53.210;5.772;2023-07-22T14:12:35;17.90;80.70
56478;DHT22;42382;53.210;5.772;2023-07-22T14:15:04;17.90;80.90
56478;DHT22;42382;53.210;5.772;2023-07-22T14:17:30;17.90;81.20
56478;DHT22;42382;53.210;5.772;2023-07-22T14:19:58;17.90;81.50
56478;DHT22;42382;53.210;5.772;2023-07-22T14:22:24;17.90;81.60
56478;DHT22;42382;53.210;5.772;2023-07-22T14:24:49;17.90;81.80
56478;DHT22;42382;53.210;5.772;2023-07-22T14:27:15;18.00;81.40
56478;DHT22;42382;53.210;5.772;2023-07-22T14:29:40;18.10;81.80
56478;DHT22;42382;53.210;5.772;2023-07-22T14:32:06;18.20;81.60
56478;DHT22;42382;53.210;5.772;2023-07-22T14:34:32;18.30;82.10
56478;DHT22;42382;53.210;5.772;2023-07-22T14:36:58;18.40;81.50
56478;DHT22;42382;53.210;5.772;2023-07-22T14:39:29;18.60;80.40
56478;DHT22;42382;53.210;5.772;2023-07-22T14:42:18;18.50;78.90
56478;DHT22;42382;53.210;5.772;2023-07-22T14:45:05;18.50;79.10
56478;DHT22;42382;53.210;5.772;2023-07-22T14:47:36;18.40;78.50
56478;DHT22;42382;53.210;5.772;2023-07-22T14:50:02;18.40;78.30
56478;DHT22;42382;53.210;5.772;2023-07-22T14:52:34;18.40;78.40
56478;DHT22;42382;53.210;5.772;2023-07-22T14:55:07;18.40;79.10
56478;DHT22;42382;53.210;5.772;2023-07-22T14:57:36;18.50;79.30
56478;DHT22;42382;53.210;5.772;2023-07-22T15:02:57;18.70;78.50
56478;DHT22;42382;53.210;5.772;2023-07-22T15:05:23;18.50;76.10
56478;DHT22;42382;53.210;5.772;2023-07-22T15:07:55;18.40;75.80
56478;DHT22;42382;53.210;5.772;2023-07-22T15:10:30;18.40;76.70
56478;DHT22;42382;53.210;5.772;2023-07-22T15:12:56;18.40;76.80
56478;DHT22;42382;53.210;5.772;2023-07-22T15:15:30;18.30;76.70
56478;DHT22;42382;53.210;5.772;2023-07-22T15:17:56;18.30;76.90
56478;DHT22;42382;53.210;5.772;2023-07-22T15:20:24;18.30;77.00
56478;DHT22;42382;53.210;5.772;2023-07-22T15:22:50;18.20;77.50
56478;DHT22;42382;53.210;5.772;2023-07-22T15:25:15;18.20;77.30
56478;DHT22;42382;53.210;5.772;2023-07-22T15:27:41;18.20;77.50
56478;DHT22;42382;53.210;5.772;2023-07-22T15:30:08;18.20;77.80
56478;DHT22;42382;53.210;5.772;2023-07-22T15:32:33;18.10;77.60
56478;DHT22;42382;53.210;5.772;2023-07-22T15:34:59;18.10;77.70
56478;DHT22;42382;53.210;5.772;2023-07-22T15:37:25;18.10;78.10
56478;DHT22;42382;53.210;5.772;2023-07-22T15:39:50;18.10;78.00
56478;DHT22;42382;53.210;5.772;2023-07-22T15:42:16;18.00;78.20
56478;DHT22;42382;53.210;5.772;2023-07-22T15:44:42;18.10;78.10
56478;DHT22;42382;53.210;5.772;2023-07-22T15:47:08;18.10;78.10
56478;DHT22;42382;53.210;5.772;2023-07-22T15:49:33;18.00;78.30
56478;DHT22;42382;53.210;5.772;2023-07-22T15:51:59;18.00;78.20
56478;DHT22;42382;53.210;5.772;2023-07-22T15:54:25;18.00;78.20
56478;DHT22;42382;53.210;5.772;2023-07-22T15:56:50;17.90;78.40
56478;DHT22;42382;53.210;5.772;2023-07-22T15:59:16;17.90;78.70
56478;DHT22;42382;53.210;5.772;2023-07-22T16:01:42;17.90;78.90